createdAt,value
2019-06-10T00:00:32.387Z,18.09
2019-06-10T00:01:32.373Z,18.13
2019-06-10T00:02:32.414Z,18.23
2019-06-10T00:03:32.344Z,18.23
2019-06-10T00:04:32.378Z,18.20
2019-06-10T00:05:32.607Z,18.26
2019-06-10T00:06:32.377Z,18.17
2019-06-10T00:07:32.280Z,18.26
2019-06-10T00:08:32.270Z,18.28
2019-06-10T00:09:32.265Z,18.23
2019-06-10T00:10:32.234Z,18.24
2019-06-10T00:11:32.556Z,18.12
2019-06-10T00:12:32.203Z,18.21
2019-06-10T00:13:32.314Z,18.17
2019-06-10T00:14:32.199Z,18.15
2019-06-10T00:15:32.671Z,18.17
2019-06-10T00:18:41.122Z,18.15
2019-06-10T00:19:32.824Z,18.15
2019-06-10T00:22:32.068Z,18.08
2019-06-10T00:23:32.179Z,18.18
2019-06-10T00:24:32.349Z,18.15
2019-06-10T00:25:32.077Z,18.13
2019-06-10T00:27:32.398Z,18.03
2019-06-10T00:28:32.040Z,18.17
2019-06-10T00:29:32.044Z,18.03
2019-06-10T00:30:32.905Z,18.15
2019-06-10T00:31:32.265Z,18.15
2019-06-10T00:32:32.139Z,18.17
2019-06-10T00:33:31.923Z,18.12
2019-06-10T00:34:35.006Z,18.13
2019-06-10T00:36:31.865Z,18.15
2019-06-10T00:37:32.168Z,18.15
2019-06-10T00:38:32.030Z,18.28
2019-06-10T00:39:31.924Z,18.17
2019-06-10T00:40:31.828Z,18.13
2019-06-10T00:41:31.837Z,18.15
2019-06-10T00:42:31.856Z,18.11
2019-06-10T00:44:32.051Z,18.03
2019-06-10T00:45:31.846Z,17.99
2019-06-10T00:46:31.894Z,18.02
2019-06-10T00:47:31.713Z,17.96
2019-06-10T00:48:32.390Z,17.91
2019-06-10T00:49:31.790Z,17.93
2019-06-10T00:50:31.670Z,18.01
2019-06-10T00:51:31.969Z,17.96
2019-06-10T00:52:31.646Z,17.90
2019-06-10T00:53:31.814Z,17.88
2019-06-10T00:54:31.657Z,17.94
2019-06-10T00:55:31.591Z,17.94
2019-06-10T00:56:31.597Z,17.88
2019-06-10T00:57:31.584Z,17.88
2019-06-10T00:58:32.140Z,17.86
2019-06-10T00:59:31.533Z,17.97
2019-06-10T01:00:31.853Z,17.91
2019-06-10T01:01:31.590Z,17.88
2019-06-10T01:02:31.916Z,17.90
2019-06-10T01:03:31.624Z,17.83
2019-06-10T01:04:31.874Z,17.76
2019-06-10T01:05:31.877Z,17.76
2019-06-10T01:07:31.420Z,17.86
2019-06-10T01:08:31.693Z,17.76
2019-06-10T01:09:31.751Z,17.79
2019-06-10T01:10:31.683Z,17.76
2019-06-10T01:11:31.370Z,17.78
2019-06-10T01:12:31.755Z,17.79
2019-06-10T01:13:31.331Z,17.84
2019-06-10T01:14:31.975Z,17.79
2019-06-10T01:15:31.470Z,17.76
2019-06-10T01:16:31.817Z,17.73
2019-06-10T01:18:37.840Z,17.75
2019-06-10T01:19:31.601Z,17.72
2019-06-10T01:20:32.539Z,17.68
2019-06-10T01:21:31.443Z,17.72
2019-06-10T01:22:31.661Z,17.72
2019-06-10T01:23:31.219Z,17.73
2019-06-10T01:25:31.244Z,17.71
2019-06-10T01:26:31.489Z,17.68
2019-06-10T01:27:31.577Z,17.76
2019-06-10T01:28:31.537Z,17.81
2019-06-10T01:29:31.453Z,17.65
2019-06-10T01:30:31.321Z,17.75
2019-06-10T01:31:31.695Z,17.71
2019-06-10T01:32:31.916Z,17.71
2019-06-10T01:33:31.860Z,17.65
2019-06-10T01:34:31.238Z,17.63
2019-06-10T01:35:31.021Z,17.69
2019-06-10T01:36:31.464Z,17.66
2019-06-10T01:37:31.206Z,17.65
2019-06-10T01:38:31.737Z,17.63
2019-06-10T01:39:31.124Z,17.63
2019-06-10T01:40:31.447Z,17.69
2019-06-10T01:41:30.934Z,17.57
2019-06-10T01:43:31.988Z,17.63
2019-06-10T01:44:31.195Z,17.54
2019-06-10T01:45:31.302Z,17.57
2019-06-10T01:46:31.654Z,17.56
2019-06-10T01:47:31.054Z,17.63
2019-06-10T01:48:43.254Z,17.59
2019-06-10T01:49:30.962Z,17.65
2019-06-10T01:50:31.221Z,17.56
2019-06-10T01:51:31.733Z,17.54
2019-06-10T01:52:31.647Z,17.54
2019-06-10T01:53:31.431Z,17.56
2019-06-10T01:54:31.645Z,17.54
2019-06-10T01:55:31.288Z,17.62
2019-06-10T01:56:31.461Z,17.63
2019-06-10T01:57:30.893Z,17.57
2019-06-10T01:58:31.574Z,17.62
2019-06-10T01:59:31.257Z,17.57
2019-06-10T02:00:31.157Z,17.65
2019-06-10T02:01:30.772Z,17.62
2019-06-10T02:02:34.932Z,17.59
2019-06-10T02:03:31.451Z,17.57
2019-06-10T02:04:32.038Z,17.59
2019-06-10T02:06:31.655Z,17.59
2019-06-10T02:07:31.991Z,17.57
2019-06-10T02:08:31.677Z,17.54
2019-06-10T02:09:31.006Z,17.59
2019-06-10T02:10:31.068Z,17.57
2019-06-10T02:11:31.754Z,17.63
2019-06-10T02:12:31.560Z,17.54
2019-06-10T02:13:32.675Z,17.62
2019-06-10T02:14:31.775Z,17.57
2019-06-10T02:17:31.448Z,17.59
2019-06-10T02:18:31.943Z,17.56
2019-06-10T02:19:31.073Z,17.53
2019-06-10T02:20:31.779Z,17.52
2019-06-10T02:21:31.119Z,17.49
2019-06-10T02:22:31.812Z,17.46
2019-06-10T02:23:31.369Z,17.47
2019-06-10T02:24:31.571Z,17.43
2019-06-10T02:25:30.566Z,17.43
2019-06-10T02:26:30.889Z,17.49
2019-06-10T02:27:31.474Z,17.46
2019-06-10T02:28:31.648Z,17.46
2019-06-10T02:31:37.372Z,17.41
2019-06-10T02:33:35.737Z,17.41
2019-06-10T02:34:33.100Z,17.39
2019-06-10T02:35:44.019Z,17.38
2019-06-10T02:36:35.437Z,17.30
2019-06-10T02:37:32.166Z,17.41
2019-06-10T02:38:37.898Z,17.35
2019-06-10T02:39:37.547Z,17.38
2019-06-10T02:40:33.138Z,17.34
2019-06-10T02:41:35.363Z,17.30
2019-06-10T02:43:33.264Z,17.31
2019-06-10T02:44:34.313Z,17.24
2019-06-10T02:45:36.299Z,17.24
2019-06-10T02:47:33.622Z,17.22
2019-06-10T02:48:30.678Z,17.28
2019-06-10T02:49:51.479Z,17.28
2019-06-10T02:50:33.509Z,17.24
2019-06-10T02:51:31.566Z,17.25
2019-06-10T02:53:35.162Z,17.22
2019-06-10T02:54:34.796Z,17.28
2019-06-10T02:55:31.817Z,17.20
2019-06-10T02:56:34.981Z,17.24
2019-06-10T02:57:36.609Z,17.27
2019-06-10T02:58:34.187Z,17.20
2019-06-10T02:59:32.858Z,17.22
2019-06-10T03:00:42.628Z,17.22
2019-06-10T03:01:34.315Z,17.22
2019-06-10T03:02:33.074Z,17.19
2019-06-10T03:03:39.369Z,17.16
2019-06-10T03:04:32.607Z,17.13
2019-06-10T03:06:36.354Z,17.09
2019-06-10T03:07:32.647Z,17.14
2019-06-10T03:09:32.022Z,17.12
2019-06-10T03:10:33.030Z,17.13
2019-06-10T03:11:35.653Z,17.14
2019-06-10T03:12:29.878Z,17.17
2019-06-10T03:14:29.550Z,17.17
2019-06-10T03:15:29.557Z,17.19
2019-06-10T03:16:29.629Z,17.24
2019-06-10T03:17:32.148Z,17.27
2019-06-10T03:19:42.155Z,17.19
2019-06-10T03:20:29.515Z,17.16
2019-06-10T03:21:29.457Z,17.28
2019-06-10T03:22:29.435Z,17.28
2019-06-10T03:23:31.857Z,17.25
2019-06-10T03:24:29.408Z,17.31
2019-06-10T03:25:29.690Z,17.30
2019-06-10T03:26:29.369Z,17.27
2019-06-10T03:27:29.372Z,17.25
2019-06-10T03:28:29.345Z,17.24
2019-06-10T03:29:29.332Z,17.28
2019-06-10T03:30:44.212Z,17.22
2019-06-10T03:31:40.099Z,17.28
2019-06-10T03:32:35.696Z,17.31
2019-06-10T03:33:36.719Z,17.25
2019-06-10T03:34:36.204Z,17.19
2019-06-10T03:35:29.235Z,17.27
2019-06-10T03:36:29.284Z,17.22
2019-06-10T03:37:29.547Z,17.17
2019-06-10T03:38:29.206Z,17.25
2019-06-10T03:40:29.167Z,17.27
2019-06-10T03:41:29.365Z,17.27
2019-06-10T03:42:29.787Z,17.22
2019-06-10T03:43:29.179Z,17.30
2019-06-10T03:44:29.410Z,17.27
2019-06-10T03:45:29.131Z,17.30
2019-06-10T03:46:29.080Z,17.34
2019-06-10T03:47:29.063Z,17.22
2019-06-10T03:48:29.055Z,17.39
2019-06-10T03:49:29.025Z,17.41
2019-06-10T03:50:29.011Z,17.41
2019-06-10T03:51:29.318Z,17.39
2019-06-10T03:52:29.049Z,17.45
2019-06-10T03:53:28.978Z,17.46
2019-06-10T03:54:29.544Z,17.45
2019-06-10T03:55:29.164Z,17.43
2019-06-10T03:56:28.980Z,17.50
2019-06-10T03:57:29.010Z,17.47
2019-06-10T03:58:29.317Z,17.43
2019-06-10T03:59:29.621Z,17.52
2019-06-10T04:00:29.022Z,17.46
2019-06-10T04:01:30.122Z,17.53
2019-06-10T04:02:28.874Z,17.54
2019-06-10T04:03:29.365Z,17.46
2019-06-10T04:04:28.803Z,17.49
2019-06-10T04:05:29.089Z,17.41
2019-06-10T04:06:29.555Z,17.46
2019-06-10T04:07:31.231Z,17.43
2019-06-10T04:09:28.899Z,17.39
2019-06-10T04:11:31.599Z,17.39
2019-06-10T04:12:29.187Z,17.43
2019-06-10T04:13:28.667Z,17.39
2019-06-10T04:14:28.747Z,17.43
2019-06-10T04:15:29.588Z,17.30
2019-06-10T04:16:28.628Z,17.34
2019-06-10T04:17:28.868Z,17.28
2019-06-10T04:18:29.462Z,17.41
2019-06-10T04:19:28.879Z,17.39
2019-06-10T04:20:29.601Z,17.20
2019-06-10T04:21:28.550Z,17.30
2019-06-10T04:22:28.533Z,17.31
2019-06-10T04:23:28.520Z,17.28
2019-06-10T04:24:28.690Z,17.20
2019-06-10T04:27:28.585Z,17.16
2019-06-10T04:28:28.783Z,17.17
2019-06-10T04:29:29.050Z,17.13
2019-06-10T04:30:29.291Z,17.17
2019-06-10T04:31:29.696Z,17.17
2019-06-10T04:33:28.823Z,17.20
2019-06-10T04:34:30.381Z,17.13
2019-06-10T04:35:29.114Z,17.17
2019-06-10T04:36:29.402Z,17.20
2019-06-10T04:37:29.554Z,17.27
2019-06-10T04:38:29.099Z,17.25
2019-06-10T04:42:28.982Z,17.37
2019-06-10T04:43:28.923Z,17.41
2019-06-10T04:44:29.395Z,17.39
2019-06-10T04:45:29.193Z,17.54
2019-06-10T04:47:29.680Z,17.39
2019-06-10T04:50:37.245Z,17.43
2019-06-10T04:51:29.672Z,17.49
2019-06-10T04:52:29.664Z,17.41
2019-06-10T04:53:29.401Z,17.50
2019-06-10T04:54:28.679Z,17.46
2019-06-10T04:55:29.240Z,17.59
2019-06-10T04:56:29.344Z,17.50
2019-06-10T04:57:28.411Z,17.54
2019-06-10T04:58:29.127Z,17.56
2019-06-10T04:59:30.087Z,17.56
2019-06-10T05:00:29.128Z,17.57
2019-06-10T05:01:28.921Z,17.63
2019-06-10T05:03:29.519Z,17.54
2019-06-10T05:04:28.724Z,17.57
2019-06-10T05:05:28.833Z,17.57
2019-06-10T05:06:28.660Z,17.66
2019-06-10T05:07:32.044Z,17.63
2019-06-10T05:08:28.477Z,17.65
2019-06-10T05:09:29.416Z,17.53
2019-06-10T05:10:28.308Z,17.62
2019-06-10T05:11:28.934Z,17.56
2019-06-10T05:12:28.052Z,17.52
2019-06-10T05:13:28.368Z,17.62
2019-06-10T05:14:29.123Z,17.59
2019-06-10T05:15:29.867Z,17.63
2019-06-10T05:16:31.889Z,17.65
2019-06-10T05:17:30.626Z,17.76
2019-06-10T05:18:29.071Z,17.73
2019-06-10T05:19:29.085Z,17.83
2019-06-10T05:20:44.649Z,17.79
2019-06-10T05:21:29.214Z,17.87
2019-06-10T05:22:28.473Z,17.79
2019-06-10T05:23:27.980Z,17.79
2019-06-10T05:24:29.575Z,17.91
2019-06-10T05:25:28.462Z,17.91
2019-06-10T05:26:28.831Z,17.91
2019-06-10T05:27:28.593Z,18.01
2019-06-10T05:28:28.721Z,17.94
2019-06-10T05:30:29.462Z,18.05
2019-06-10T05:31:28.924Z,18.03
2019-06-10T05:33:28.614Z,18.06
2019-06-10T05:34:28.760Z,18.02
2019-06-10T05:35:28.464Z,18.12
2019-06-10T05:36:28.996Z,18.21
2019-06-10T05:37:28.230Z,18.15
2019-06-10T05:38:28.823Z,18.18
2019-06-10T05:39:28.772Z,18.12
2019-06-10T05:40:27.645Z,18.27
2019-06-10T05:41:28.967Z,18.09
2019-06-10T05:42:28.176Z,18.23
2019-06-10T05:43:27.858Z,18.13
2019-06-10T05:44:28.458Z,18.23
2019-06-10T05:45:28.797Z,18.26
2019-06-10T05:46:28.706Z,18.20
2019-06-10T05:47:28.317Z,18.24
2019-06-10T05:49:28.822Z,18.24
2019-06-10T05:51:27.895Z,18.31
2019-06-10T05:53:28.018Z,18.27
2019-06-10T05:54:27.569Z,18.20
2019-06-10T05:55:27.244Z,18.27
2019-06-10T05:56:27.232Z,18.23
2019-06-10T05:57:27.417Z,18.27
2019-06-10T05:58:27.799Z,18.27
2019-06-10T05:59:27.370Z,18.33
2019-06-10T06:00:27.543Z,18.34
2019-06-10T06:01:27.564Z,18.34
2019-06-10T06:02:27.764Z,18.46
2019-06-10T06:03:27.797Z,18.48
2019-06-10T06:04:28.042Z,18.52
2019-06-10T06:06:27.107Z,18.56
2019-06-10T06:07:27.083Z,18.58
2019-06-10T06:08:27.118Z,18.45
2019-06-10T06:09:27.192Z,18.42
2019-06-10T06:10:27.352Z,18.38
2019-06-10T06:12:27.381Z,18.41
2019-06-10T06:13:27.451Z,18.38
2019-06-10T06:14:27.535Z,18.38
2019-06-10T06:15:27.451Z,18.46
2019-06-10T06:16:27.658Z,18.56
2019-06-10T06:17:27.902Z,18.58
2019-06-10T06:18:27.895Z,18.67
2019-06-10T06:19:28.112Z,18.64
2019-06-10T06:20:27.078Z,18.71
2019-06-10T06:22:27.435Z,18.66
2019-06-10T06:23:28.544Z,18.79
2019-06-10T06:25:27.646Z,18.83
2019-06-10T06:26:28.374Z,18.85
2019-06-10T06:27:26.914Z,18.91
2019-06-10T06:28:27.940Z,19.05
2019-06-10T06:29:27.110Z,18.97
2019-06-10T06:30:27.976Z,19.07
2019-06-10T06:31:26.716Z,18.98
2019-06-10T06:32:28.514Z,19.09
2019-06-10T06:34:28.341Z,19.08
2019-06-10T06:35:26.655Z,19.22
2019-06-10T06:36:26.796Z,19.26
2019-06-10T06:37:26.864Z,19.37
2019-06-10T06:38:26.895Z,19.31
2019-06-10T06:39:27.045Z,19.34
2019-06-10T06:40:27.213Z,19.56
2019-06-10T06:41:27.424Z,19.63
2019-06-10T06:42:27.359Z,19.75
2019-06-10T06:43:28.941Z,19.82
2019-06-10T06:44:27.568Z,19.84
2019-06-10T06:45:27.603Z,19.86
2019-06-10T06:46:27.592Z,19.82
2019-06-10T06:47:27.755Z,19.84
2019-06-10T06:48:26.486Z,19.82
2019-06-10T06:49:27.830Z,19.77
2019-06-10T06:50:26.567Z,19.87
2019-06-10T06:51:40.036Z,19.94
2019-06-10T06:52:55.592Z,19.97
2019-06-10T06:53:33.172Z,20.00
2019-06-10T06:55:26.402Z,20.25
2019-06-10T06:56:26.585Z,20.29
2019-06-10T06:57:26.370Z,20.46
2019-06-10T06:58:26.348Z,20.52
2019-06-10T06:59:26.339Z,20.60
2019-06-10T07:01:26.609Z,20.71
2019-06-10T07:02:26.310Z,20.71
2019-06-10T07:03:26.291Z,20.75
2019-06-10T07:04:26.285Z,20.80
2019-06-10T07:05:26.396Z,20.82
2019-06-10T07:07:26.831Z,20.79
2019-06-10T07:08:26.776Z,20.73
2019-06-10T07:09:26.248Z,20.79
2019-06-10T07:11:26.322Z,20.70
2019-06-10T07:12:26.238Z,20.65
2019-06-10T07:13:26.266Z,20.55
2019-06-10T07:15:26.729Z,20.34
2019-06-10T07:16:28.931Z,20.34
2019-06-10T07:17:26.167Z,20.41
2019-06-10T07:18:26.413Z,20.41
2019-06-10T07:19:26.255Z,20.29
2019-06-10T07:20:26.173Z,20.19
2019-06-10T07:21:26.102Z,20.11
2019-06-10T07:22:26.470Z,20.09
2019-06-10T07:24:26.194Z,20.08
2019-06-10T07:25:26.199Z,20.05
2019-06-10T07:26:26.018Z,20.00
2019-06-10T07:27:26.101Z,20.00
2019-06-10T07:28:25.998Z,20.00
2019-06-10T07:30:26.073Z,20.14
2019-06-10T07:32:26.032Z,20.18
2019-06-10T07:33:26.021Z,20.23
2019-06-10T07:34:26.456Z,20.33
2019-06-10T07:35:26.450Z,20.36
2019-06-10T07:36:25.948Z,20.46
2019-06-10T07:37:25.995Z,20.60
2019-06-10T07:38:26.394Z,20.55
2019-06-10T07:39:25.911Z,20.70
2019-06-10T07:40:25.928Z,20.71
2019-06-10T07:41:26.244Z,20.70
2019-06-10T07:43:26.035Z,20.77
2019-06-10T07:44:27.470Z,20.77
2019-06-10T07:45:26.138Z,20.85
2019-06-10T07:46:28.980Z,20.88
2019-06-10T07:47:26.414Z,21.23
2019-06-10T07:49:26.099Z,21.77
2019-06-10T07:50:26.006Z,22.06
2019-06-10T07:51:26.717Z,22.33
2019-06-10T07:52:26.511Z,22.53
2019-06-10T07:53:27.271Z,22.89
2019-06-10T07:54:26.007Z,23.10
2019-06-10T07:55:26.475Z,23.29
2019-06-10T07:56:29.001Z,23.48
2019-06-10T07:57:27.230Z,23.61
2019-06-10T07:58:29.689Z,23.48
2019-06-10T08:02:26.456Z,23.33
2019-06-10T08:03:25.686Z,23.31
2019-06-10T08:05:27.043Z,23.26
2019-06-10T08:06:27.990Z,23.28
2019-06-10T08:07:27.599Z,23.18
2019-06-10T08:08:26.112Z,23.17
2019-06-10T08:09:26.166Z,23.01
2019-06-10T08:11:27.167Z,23.01
2019-06-10T08:12:25.562Z,23.04
2019-06-10T08:13:27.370Z,23.10
2019-06-10T08:16:25.720Z,23.46
2019-06-10T08:17:25.657Z,23.55
2019-06-10T08:18:25.967Z,23.52
2019-06-10T08:20:26.529Z,23.76
2019-06-10T08:21:26.349Z,23.94
2019-06-10T08:26:25.632Z,24.41
2019-06-10T08:27:25.493Z,24.51
2019-06-10T08:29:25.677Z,24.68
2019-06-10T08:30:27.669Z,24.79
2019-06-10T08:31:25.612Z,24.82
2019-06-10T08:32:25.704Z,24.97
2019-06-10T08:33:25.488Z,24.94
2019-06-10T08:34:25.439Z,25.09
2019-06-10T08:35:38.312Z,24.91
2019-06-10T08:36:25.310Z,24.90
2019-06-10T08:37:25.473Z,25.18
2019-06-10T08:38:25.393Z,25.31
2019-06-10T08:39:25.646Z,25.38
2019-06-10T08:40:25.639Z,25.56
2019-06-10T08:41:25.277Z,25.49
2019-06-10T08:42:25.314Z,25.38
2019-06-10T08:43:25.250Z,25.28
2019-06-10T08:44:25.254Z,25.58
2019-06-10T08:45:25.239Z,25.45
2019-06-10T08:46:25.527Z,25.33
2019-06-10T08:47:25.233Z,25.40
2019-06-10T08:48:25.206Z,25.55
2019-06-10T08:49:25.201Z,25.75
2019-06-10T08:50:25.230Z,25.78
2019-06-10T08:51:25.189Z,25.90
2019-06-10T08:52:25.202Z,25.88
2019-06-10T08:53:25.478Z,25.58
2019-06-10T08:54:25.318Z,25.55
2019-06-10T08:56:25.384Z,25.28
2019-06-10T08:58:25.200Z,25.15
2019-06-10T08:59:26.496Z,25.09
2019-06-10T09:01:25.133Z,24.70
2019-06-10T09:03:25.166Z,25.01
2019-06-10T09:05:25.231Z,25.40
2019-06-10T09:06:25.090Z,25.63
2019-06-10T09:07:26.866Z,25.70
2019-06-10T09:08:25.344Z,25.75
2019-06-10T09:09:25.396Z,25.83
2019-06-10T09:10:25.070Z,25.90
2019-06-10T09:11:25.529Z,25.86
2019-06-10T09:12:32.915Z,26.05
2019-06-10T09:13:25.058Z,26.05
2019-06-10T09:15:25.048Z,26.28
2019-06-10T09:16:25.039Z,26.51
2019-06-10T09:17:25.027Z,26.58
2019-06-10T09:18:25.695Z,26.73
2019-06-10T09:19:25.766Z,26.78
2019-06-10T09:20:26.571Z,26.78
2019-06-10T09:21:25.746Z,26.67
2019-06-10T09:22:25.144Z,26.57
2019-06-10T09:23:26.054Z,26.49
2019-06-10T09:24:25.229Z,26.51
2019-06-10T09:25:25.594Z,26.33
2019-06-10T09:28:25.337Z,26.51
2019-06-10T09:29:25.011Z,26.46
2019-06-10T09:30:24.995Z,26.64
2019-06-10T09:31:25.326Z,26.94
2019-06-10T09:32:25.718Z,27.01
2019-06-10T09:33:26.321Z,27.07
2019-06-10T09:35:24.952Z,27.15
2019-06-10T09:36:25.221Z,27.22
2019-06-10T09:38:25.292Z,27.16
2019-06-10T09:39:25.010Z,27.16
2019-06-10T09:40:24.981Z,27.23
2019-06-10T09:41:36.435Z,27.41
2019-06-10T09:42:25.451Z,27.47
2019-06-10T09:43:25.575Z,27.64
2019-06-10T09:44:25.265Z,27.60
2019-06-10T09:45:25.285Z,27.85
2019-06-10T09:47:25.017Z,28.17
2019-06-10T09:48:25.070Z,28.17
2019-06-10T09:50:24.936Z,28.25
2019-06-10T09:51:25.019Z,28.16
2019-06-10T09:52:24.948Z,28.22
2019-06-10T09:53:33.350Z,28.19
2019-06-10T09:54:25.068Z,28.28
2019-06-10T09:55:24.950Z,28.31
2019-06-10T09:56:25.598Z,28.27
2019-06-10T09:57:24.965Z,28.16
2019-06-10T09:58:25.258Z,28.43
2019-06-10T09:59:26.016Z,28.53
2019-06-10T10:00:29.342Z,28.74
2019-06-10T10:01:29.574Z,28.72
2019-06-10T10:05:24.925Z,28.37
2019-06-10T10:06:25.064Z,28.53
2019-06-10T10:07:25.700Z,28.68
2019-06-10T10:08:25.021Z,28.68
2019-06-10T10:09:25.342Z,28.74
2019-06-10T10:10:25.077Z,28.65
2019-06-10T10:11:28.518Z,28.66
2019-06-10T10:15:30.891Z,28.71
2019-06-10T10:16:25.148Z,28.75
2019-06-10T10:17:24.931Z,28.79
2019-06-10T10:18:25.139Z,29.12
2019-06-10T10:19:24.974Z,29.36
2019-06-10T10:20:25.010Z,29.36
2019-06-10T10:21:25.076Z,29.18
2019-06-10T10:22:28.726Z,29.15
2019-06-10T10:23:25.979Z,29.15
2019-06-10T10:24:27.372Z,29.22
2019-06-10T10:25:24.936Z,29.44
2019-06-10T10:26:25.062Z,29.44
2019-06-10T10:28:26.454Z,29.49
2019-06-10T10:29:25.337Z,29.49
2019-06-10T10:31:24.970Z,29.84
2019-06-10T10:32:25.003Z,29.93
2019-06-10T10:33:29.723Z,30.13
2019-06-10T10:34:25.078Z,30.20
2019-06-10T10:35:26.222Z,30.15
2019-06-10T10:36:25.005Z,30.32
2019-06-10T10:38:25.208Z,30.52
2019-06-10T10:43:32.647Z,30.55
2019-06-10T10:44:25.796Z,30.33
2019-06-10T10:45:25.575Z,30.37
2019-06-10T10:46:45.599Z,30.55
2019-06-10T10:47:27.525Z,30.36
2019-06-10T10:48:25.760Z,30.29
2019-06-10T10:49:26.031Z,30.15
2019-06-10T10:50:25.411Z,30.28
2019-06-10T10:51:26.401Z,30.28
2019-06-10T10:52:25.924Z,30.17
2019-06-10T10:54:32.773Z,30.33
2019-06-10T10:55:24.989Z,30.55
2019-06-10T10:56:25.718Z,30.89
2019-06-10T10:57:25.031Z,30.77
2019-06-10T10:58:25.010Z,30.85
2019-06-10T10:59:25.060Z,30.71
2019-06-10T11:00:25.336Z,30.65
2019-06-10T11:01:24.994Z,30.78
2019-06-10T11:02:25.039Z,30.86
2019-06-10T11:03:25.208Z,30.92
2019-06-10T11:04:25.006Z,31.20
2019-06-10T11:05:25.086Z,31.26
2019-06-10T11:06:25.700Z,31.24
2019-06-10T11:07:26.686Z,31.42
2019-06-10T11:09:25.482Z,31.66
2019-06-10T11:10:25.050Z,31.64
2019-06-10T11:11:25.031Z,31.75
2019-06-10T11:12:25.517Z,31.81
2019-06-10T11:13:25.033Z,32.05
2019-06-10T11:14:25.248Z,31.89
2019-06-10T11:15:25.179Z,31.89
2019-06-10T11:16:25.577Z,32.09
2019-06-10T11:17:25.819Z,32.20
2019-06-10T11:18:25.442Z,32.09
2019-06-10T11:19:25.158Z,32.02
2019-06-10T11:20:25.271Z,32.16
2019-06-10T11:21:25.066Z,32.13
2019-06-10T11:22:25.420Z,32.39
2019-06-10T11:23:25.073Z,32.36
2019-06-10T11:24:36.601Z,32.51
2019-06-10T11:25:25.793Z,32.64
2019-06-10T11:28:35.672Z,33.24
2019-06-10T11:29:25.097Z,33.24
2019-06-10T11:31:25.634Z,33.29
2019-06-10T11:32:26.162Z,32.95
2019-06-10T11:33:26.110Z,32.98
2019-06-10T11:34:25.482Z,32.95
2019-06-10T11:35:25.751Z,33.09
2019-06-10T11:36:25.620Z,32.94
2019-06-10T11:37:25.423Z,32.88
2019-06-10T11:38:25.747Z,32.76
2019-06-10T11:40:26.512Z,32.19
2019-06-10T11:41:26.110Z,32.73
2019-06-10T11:42:25.937Z,32.88
2019-06-10T11:43:25.555Z,33.17
2019-06-10T11:44:25.878Z,33.22
2019-06-10T11:45:25.582Z,33.24
2019-06-10T11:47:26.584Z,32.77
2019-06-10T11:48:25.345Z,32.77
2019-06-10T11:49:25.341Z,32.98
2019-06-10T11:50:25.576Z,33.24
2019-06-10T11:51:25.245Z,33.24
2019-06-10T11:52:25.381Z,33.54
2019-06-10T11:53:28.677Z,33.70
2019-06-10T11:54:25.386Z,33.74
2019-06-10T11:56:25.550Z,33.48
2019-06-10T11:57:25.336Z,32.79
2019-06-10T11:58:25.330Z,31.95
2019-06-10T11:59:25.572Z,31.48
2019-06-10T12:00:25.246Z,31.79
2019-06-10T12:01:25.241Z,31.49
2019-06-10T12:02:25.290Z,31.04
2019-06-10T12:03:25.541Z,30.64
2019-06-10T12:04:26.150Z,30.62
2019-06-10T12:05:25.287Z,30.33
2019-06-10T12:06:25.496Z,30.13
2019-06-10T12:07:25.458Z,29.92
2019-06-10T12:08:25.350Z,29.65
2019-06-10T12:09:25.330Z,29.47
2019-06-10T12:10:25.706Z,29.41
2019-06-10T12:11:25.612Z,29.37
2019-06-10T12:12:25.509Z,29.27
2019-06-10T12:13:25.738Z,30.13
2019-06-10T12:14:27.229Z,30.46
2019-06-10T12:15:28.266Z,30.14
2019-06-10T12:17:41.919Z,30.03
2019-06-10T12:18:25.815Z,29.62
2019-06-10T12:19:25.345Z,29.49
2019-06-10T12:20:28.469Z,29.68
2019-06-10T12:21:25.676Z,30.52
2019-06-10T12:22:26.284Z,31.30
2019-06-10T12:23:25.769Z,31.84
2019-06-10T12:24:25.564Z,32.42
2019-06-10T12:25:35.017Z,32.19
2019-06-10T12:26:25.546Z,32.19
2019-06-10T12:27:25.892Z,32.36
2019-06-10T12:28:25.463Z,32.53
2019-06-10T12:29:26.635Z,32.09
2019-06-10T12:30:25.432Z,31.89
2019-06-10T12:31:25.973Z,32.09
2019-06-10T12:32:25.955Z,32.33
2019-06-10T12:33:25.587Z,32.50
2019-06-10T12:34:25.329Z,32.54
2019-06-10T12:35:25.436Z,32.19
2019-06-10T12:37:25.981Z,32.63
2019-06-10T12:38:25.335Z,32.82
2019-06-10T12:39:25.280Z,33.20
2019-06-10T12:40:25.278Z,33.33
2019-06-10T12:41:25.282Z,33.48
2019-06-10T12:42:25.672Z,33.85
2019-06-10T12:43:25.819Z,33.03
2019-06-10T12:45:25.780Z,32.05
2019-06-10T12:46:25.322Z,31.24
2019-06-10T12:47:25.320Z,30.62
2019-06-10T12:48:25.369Z,30.10
2019-06-10T12:51:26.760Z,29.31
2019-06-10T12:52:26.037Z,29.12
2019-06-10T12:53:25.442Z,29.06
2019-06-10T12:54:26.174Z,28.96
2019-06-10T12:57:27.382Z,29.18
2019-06-10T12:58:26.435Z,29.03
2019-06-10T12:59:25.527Z,28.66
2019-06-10T13:00:26.504Z,28.59
2019-06-10T13:01:25.485Z,28.54
2019-06-10T13:02:31.161Z,28.34
2019-06-10T13:03:25.376Z,28.20
2019-06-10T13:04:25.782Z,28.10
2019-06-10T13:05:25.604Z,28.06
2019-06-10T13:06:25.825Z,27.90
2019-06-10T13:07:25.573Z,27.82
2019-06-10T13:08:25.422Z,27.85
2019-06-10T13:09:25.586Z,27.78
2019-06-10T13:10:25.890Z,27.80
2019-06-10T13:11:25.406Z,27.82
2019-06-10T13:12:25.558Z,27.85
2019-06-10T13:13:25.415Z,27.80
2019-06-10T13:14:25.327Z,27.90
2019-06-10T13:17:25.632Z,27.88
2019-06-10T13:18:26.479Z,28.15
2019-06-10T13:19:26.088Z,28.27
2019-06-10T13:20:26.062Z,29.27
2019-06-10T13:21:33.162Z,29.44
2019-06-10T13:22:28.468Z,29.76
2019-06-10T13:23:31.580Z,30.20
2019-06-10T13:24:25.306Z,29.86
2019-06-10T13:25:25.803Z,29.47
2019-06-10T13:26:25.639Z,29.18
2019-06-10T13:27:25.637Z,28.87
2019-06-10T13:28:25.824Z,28.64
2019-06-10T13:29:25.690Z,28.46
2019-06-10T13:30:25.735Z,28.27
2019-06-10T13:31:25.525Z,28.01
2019-06-10T13:32:25.379Z,28.00
2019-06-10T13:33:26.020Z,27.95
2019-06-10T13:34:25.492Z,27.90
2019-06-10T13:35:25.643Z,27.75
2019-06-10T13:37:25.392Z,27.79
2019-06-10T13:38:25.928Z,27.73
2019-06-10T13:39:27.672Z,27.68
2019-06-10T13:40:25.685Z,27.63
2019-06-10T13:41:25.204Z,27.49
2019-06-10T13:43:26.796Z,27.47
2019-06-10T13:44:25.376Z,27.54
2019-06-10T13:45:25.653Z,27.53
2019-06-10T13:46:36.925Z,27.66
2019-06-10T13:47:26.128Z,27.68
2019-06-10T13:48:27.186Z,27.70
2019-06-10T13:49:25.672Z,28.13
2019-06-10T13:50:25.870Z,28.87
2019-06-10T13:55:25.187Z,29.49
2019-06-10T13:56:43.083Z,30.29
2019-06-10T13:57:25.378Z,30.77
2019-06-10T13:58:25.321Z,31.24
2019-06-10T13:59:25.459Z,31.64
2019-06-10T14:00:40.459Z,31.79
2019-06-10T14:03:25.565Z,31.11
2019-06-10T14:04:25.817Z,31.61
2019-06-10T14:05:25.095Z,31.51
2019-06-10T14:06:39.550Z,31.26
2019-06-10T14:07:26.175Z,31.05
2019-06-10T14:08:25.272Z,31.38
2019-06-10T14:09:25.194Z,31.30
2019-06-10T14:10:25.334Z,30.89
2019-06-10T14:11:28.430Z,30.80
2019-06-10T14:12:25.066Z,30.30
2019-06-10T14:13:25.200Z,30.11
2019-06-10T14:14:25.004Z,29.76
2019-06-10T14:15:25.117Z,29.50
2019-06-10T14:16:24.999Z,29.41
2019-06-10T14:17:25.431Z,29.44
2019-06-10T14:18:25.064Z,29.81
2019-06-10T14:19:24.992Z,30.14
2019-06-10T14:20:25.228Z,30.56
2019-06-10T14:21:26.455Z,30.78
2019-06-10T14:23:25.293Z,30.55
2019-06-10T14:24:25.036Z,30.43
2019-06-10T14:25:25.089Z,30.10
2019-06-10T14:26:36.673Z,29.70
2019-06-10T14:27:25.660Z,29.50
2019-06-10T14:28:39.879Z,29.29
2019-06-10T14:29:26.280Z,29.41
2019-06-10T14:30:25.040Z,29.28
2019-06-10T14:32:25.943Z,29.15
2019-06-10T14:33:26.109Z,28.84
2019-06-10T14:34:24.983Z,28.74
2019-06-10T14:35:26.917Z,28.52
2019-06-10T14:36:25.029Z,28.44
2019-06-10T14:37:35.779Z,28.46
2019-06-10T14:38:24.956Z,28.56
2019-06-10T14:39:25.114Z,28.53
2019-06-10T14:40:25.475Z,28.64
2019-06-10T14:41:25.970Z,28.72
2019-06-10T14:42:25.435Z,29.02
2019-06-10T14:44:24.971Z,29.03
2019-06-10T14:46:25.398Z,29.36
2019-06-10T14:47:26.173Z,29.33
2019-06-10T14:48:24.879Z,29.36
2019-06-10T14:49:24.951Z,29.31
2019-06-10T14:50:24.948Z,29.15
2019-06-10T14:51:25.031Z,28.96
2019-06-10T14:52:24.986Z,28.84
2019-06-10T14:53:25.316Z,28.74
2019-06-10T14:56:25.214Z,29.46
2019-06-10T14:57:25.336Z,29.34
2019-06-10T14:58:25.223Z,29.36